createdAt,value
2018-12-25T00:02:09.664Z,5.53
2018-12-25T00:04:37.957Z,6.17
2018-12-25T00:07:06.218Z,7.37
2018-12-25T00:09:34.507Z,7.37
2018-12-25T00:12:02.770Z,6.60
2018-12-25T00:14:30.977Z,7.67
2018-12-25T00:16:59.170Z,6.30
2018-12-25T00:19:27.458Z,7.63
2018-12-25T00:21:55.730Z,6.40
2018-12-25T00:24:23.938Z,5.93
2018-12-25T00:26:52.201Z,7.33
2018-12-25T00:29:20.418Z,6.90
2018-12-25T00:31:48.677Z,8.33
2018-12-25T00:34:16.889Z,6.80
2018-12-25T00:36:45.077Z,6.87
2018-12-25T00:39:13.288Z,5.60
2018-12-25T00:41:41.477Z,11.10
2018-12-25T00:44:09.745Z,7.83
2018-12-25T00:46:38.034Z,6.37
2018-12-25T00:49:14.562Z,6.40
2018-12-25T00:51:36.237Z,6.20
2018-12-25T00:54:04.507Z,8.63
2018-12-25T00:56:32.793Z,7.43
2018-12-25T00:59:01.001Z,8.27
2018-12-25T01:01:29.294Z,6.53
2018-12-25T01:03:57.481Z,9.70
2018-12-25T01:06:25.698Z,6.20
2018-12-25T01:08:53.971Z,8.43
2018-12-25T01:11:22.253Z,8.13
2018-12-25T01:13:50.442Z,7.90
2018-12-25T01:16:18.726Z,6.37
2018-12-25T01:18:46.995Z,8.57
2018-12-25T01:21:15.277Z,7.77
2018-12-25T01:23:43.467Z,7.10
2018-12-25T01:26:11.754Z,7.27
2018-12-25T01:28:40.087Z,7.13
2018-12-25T01:31:08.376Z,6.83
2018-12-25T01:33:36.637Z,7.03
2018-12-25T01:36:04.921Z,6.90
2018-12-25T01:38:33.187Z,8.83
2018-12-25T01:41:01.470Z,7.33
2018-12-25T01:43:29.734Z,6.03
2018-12-25T01:45:58.024Z,5.93
2018-12-25T01:48:26.277Z,8.90
2018-12-25T01:50:54.490Z,8.13
2018-12-25T01:53:22.749Z,8.27
2018-12-25T01:55:50.957Z,7.60
2018-12-25T01:58:19.226Z,7.03
2018-12-25T02:00:47.493Z,7.63
2018-12-25T02:03:15.778Z,7.20
2018-12-25T02:05:43.973Z,6.87
2018-12-25T02:08:12.182Z,7.30
2018-12-25T02:10:40.455Z,7.70
2018-12-25T02:13:08.738Z,9.93
2018-12-25T02:15:36.930Z,6.53
2018-12-25T02:18:05.138Z,8.70
2018-12-25T02:20:33.403Z,6.37
2018-12-25T02:23:01.688Z,9.50
2018-12-25T02:25:29.958Z,6.67
2018-12-25T02:27:58.170Z,15.43
2018-12-25T02:30:26.355Z,5.80
2018-12-25T02:32:54.574Z,7.40
2018-12-25T02:35:22.939Z,6.90
2018-12-25T02:37:51.228Z,7.17
2018-12-25T02:40:19.493Z,7.77
2018-12-25T02:42:47.778Z,7.60
2018-12-25T02:45:15.971Z,9.77
2018-12-25T02:47:44.251Z,9.20
2018-12-25T02:50:12.510Z,9.50
2018-12-25T02:52:40.797Z,11.30
2018-12-25T02:55:08.994Z,8.37
2018-12-25T02:57:37.278Z,7.33
2018-12-25T03:00:06.407Z,7.43
2018-12-25T03:02:34.694Z,10.03
2018-12-25T03:05:03.119Z,9.13
2018-12-25T03:07:31.334Z,7.30
2018-12-25T03:09:59.521Z,9.93
2018-12-25T03:12:27.736Z,8.57
2018-12-25T03:14:55.990Z,8.30
2018-12-25T03:17:24.259Z,18.80
2018-12-25T03:19:59.827Z,8.43
2018-12-25T03:22:22.455Z,8.17
2018-12-25T03:24:50.747Z,9.10
2018-12-25T03:27:19.006Z,8.90
2018-12-25T03:29:47.296Z,9.23
2018-12-25T03:32:15.567Z,14.60
2018-12-25T03:34:43.845Z,10.00
2018-12-25T03:37:12.103Z,9.30
2018-12-25T03:39:40.389Z,12.60
2018-12-25T03:42:08.647Z,9.37
2018-12-25T03:44:36.932Z,8.10
2018-12-25T03:47:05.195Z,8.67
2018-12-25T03:49:33.483Z,8.30
2018-12-25T03:52:01.751Z,7.70
2018-12-25T03:54:30.034Z,8.13
2018-12-25T03:56:58.296Z,7.93
2018-12-25T03:59:26.580Z,8.33
2018-12-25T04:01:54.848Z,7.00
2018-12-25T04:04:23.131Z,7.03
2018-12-25T04:06:51.397Z,7.90
2018-12-25T04:09:19.686Z,9.17
2018-12-25T04:11:47.950Z,9.33
2018-12-25T04:14:16.235Z,9.77
2018-12-25T04:16:44.510Z,7.70
2018-12-25T04:19:12.800Z,8.70
2018-12-25T04:21:41.061Z,7.77
2018-12-25T04:24:09.349Z,10.20
2018-12-25T04:26:37.613Z,8.73
2018-12-25T04:29:05.823Z,8.33
2018-12-25T04:31:34.087Z,8.70
2018-12-25T04:34:02.374Z,8.90
2018-12-25T04:36:30.571Z,8.33
2018-12-25T04:38:58.839Z,8.20
2018-12-25T04:41:27.134Z,10.27
2018-12-25T04:43:55.333Z,9.10
2018-12-25T04:46:23.550Z,9.40
2018-12-25T04:48:51.911Z,9.20
2018-12-25T04:51:20.201Z,12.00
2018-12-25T04:53:48.468Z,8.70
2018-12-25T04:56:16.755Z,6.50
2018-12-25T04:58:45.014Z,8.50
2018-12-25T05:01:13.297Z,7.60
2018-12-25T05:03:41.570Z,7.87
2018-12-25T05:06:09.782Z,8.10
2018-12-25T05:08:38.045Z,8.47
2018-12-25T05:11:06.257Z,10.57
2018-12-25T05:13:34.454Z,8.47
2018-12-25T05:16:02.705Z,7.23
2018-12-25T05:18:30.935Z,8.20
2018-12-25T05:20:59.222Z,8.43
2018-12-25T05:23:27.481Z,9.60
2018-12-25T05:25:55.694Z,7.47
2018-12-25T05:28:23.882Z,8.50
2018-12-25T05:30:52.090Z,9.37
2018-12-25T05:33:20.354Z,9.23
2018-12-25T05:35:48.638Z,9.30
2018-12-25T05:38:16.913Z,9.67
2018-12-25T05:40:45.129Z,10.17
2018-12-25T05:43:13.322Z,9.83
2018-12-25T05:45:41.617Z,10.13
2018-12-25T05:48:09.881Z,10.73
2018-12-25T05:50:46.421Z,9.20
2018-12-25T05:53:08.011Z,8.53
2018-12-25T05:55:36.274Z,8.73
2018-12-25T05:58:04.563Z,8.83
2018-12-25T06:00:32.825Z,10.67
2018-12-25T06:03:01.113Z,8.87
2018-12-25T06:05:29.379Z,13.03
2018-12-25T06:07:57.589Z,8.23
2018-12-25T06:10:25.786Z,9.73
2018-12-25T06:12:54.069Z,9.50
2018-12-25T06:15:22.329Z,8.30
2018-12-25T06:17:50.543Z,9.20
2018-12-25T06:20:18.814Z,10.50
2018-12-25T06:22:47.021Z,8.43
2018-12-25T06:25:15.297Z,10.07
2018-12-25T06:27:43.581Z,7.90
2018-12-25T06:30:11.925Z,11.53
2018-12-25T06:32:40.141Z,9.57
2018-12-25T06:35:08.410Z,10.23
2018-12-25T06:37:36.695Z,8.80
2018-12-25T06:40:05.821Z,9.50
2018-12-25T06:42:34.038Z,12.13
2018-12-25T06:45:02.307Z,8.70
2018-12-25T06:47:30.594Z,8.93
2018-12-25T06:49:58.866Z,10.73
2018-12-25T06:52:27.073Z,8.90
2018-12-25T06:54:55.338Z,12.13
2018-12-25T06:57:23.627Z,10.30
2018-12-25T06:59:51.825Z,12.17
2018-12-25T07:02:20.110Z,10.43
2018-12-25T07:04:48.306Z,9.90
2018-12-25T07:07:16.524Z,10.40
2018-12-25T07:09:44.797Z,10.80
2018-12-25T07:12:12.994Z,10.90
2018-12-25T07:14:41.278Z,11.33
2018-12-25T07:17:09.572Z,10.20
2018-12-25T07:19:37.845Z,14.07
2018-12-25T07:22:06.045Z,10.57
2018-12-25T07:24:34.330Z,9.53
2018-12-25T07:27:02.529Z,10.10
2018-12-25T07:29:30.814Z,11.60
2018-12-25T07:31:59.005Z,13.10
2018-12-25T07:34:27.222Z,13.60
2018-12-25T07:36:55.494Z,10.70
2018-12-25T07:39:23.706Z,12.17
2018-12-25T07:41:51.903Z,10.70
2018-12-25T07:44:20.123Z,10.37
2018-12-25T07:46:48.384Z,11.70
2018-12-25T07:49:16.607Z,13.20
2018-12-25T07:51:44.878Z,11.30
2018-12-25T07:54:13.161Z,11.60
2018-12-25T07:56:41.433Z,12.37
2018-12-25T07:59:09.642Z,11.53
2018-12-25T08:01:37.837Z,11.50
2018-12-25T08:04:06.121Z,11.27
2018-12-25T08:06:34.322Z,12.43
2018-12-25T08:09:02.710Z,12.27
2018-12-25T08:11:30.903Z,11.07
2018-12-25T08:13:59.194Z,12.07
2018-12-25T08:16:27.473Z,11.57
2018-12-25T08:18:55.766Z,12.93
2018-12-25T08:21:29.260Z,12.03
2018-12-25T08:23:53.958Z,10.90
2018-12-25T08:26:22.222Z,11.00
2018-12-25T08:28:50.514Z,11.40
2018-12-25T08:31:18.706Z,11.13
2018-12-25T08:33:46.918Z,14.07
2018-12-25T08:36:15.116Z,13.60
2018-12-25T08:38:43.414Z,13.03
2018-12-25T08:41:11.683Z,13.83
2018-12-25T08:43:39.949Z,12.00
2018-12-25T08:46:08.165Z,14.33
2018-12-25T08:48:36.373Z,13.70
2018-12-25T08:51:04.657Z,16.67
2018-12-25T08:53:32.929Z,14.77
2018-12-25T08:56:01.223Z,11.60
2018-12-25T08:58:29.496Z,12.37
2018-12-25T09:00:57.790Z,15.33
2018-12-25T09:03:26.058Z,13.60
2018-12-25T09:05:54.278Z,15.90
2018-12-25T09:08:22.546Z,15.37
2018-12-25T09:10:50.766Z,14.27
2018-12-25T09:13:18.963Z,18.67
2018-12-25T09:15:47.250Z,12.93
2018-12-25T09:18:16.489Z,16.93
2018-12-25T09:20:44.852Z,15.50
2018-12-25T09:23:13.121Z,15.23
2018-12-25T09:25:41.410Z,16.37
2018-12-25T09:28:09.605Z,17.90
2018-12-25T09:30:37.902Z,16.77
2018-12-25T09:33:06.166Z,16.10
2018-12-25T09:35:34.391Z,17.10
2018-12-25T09:38:02.667Z,15.87
2018-12-25T09:40:30.991Z,16.10
2018-12-25T09:42:59.234Z,15.67
2018-12-25T09:45:27.530Z,16.13
2018-12-25T09:47:55.797Z,20.07
2018-12-25T09:50:24.089Z,16.60
2018-12-25T09:52:52.277Z,14.07
2018-12-25T09:55:20.573Z,9.23
2018-12-25T09:57:48.870Z,16.70
2018-12-25T10:00:17.162Z,14.93
2018-12-25T10:02:45.362Z,18.03
2018-12-25T10:05:13.580Z,14.77
2018-12-25T10:07:41.845Z,28.50
2018-12-25T10:10:10.049Z,33.07
2018-12-25T10:12:38.342Z,15.63
2018-12-25T10:15:06.919Z,15.90
2018-12-25T10:17:35.202Z,13.63
2018-12-25T10:20:03.463Z,17.40
2018-12-25T10:22:31.754Z,14.40
2018-12-25T10:25:00.024Z,40.47
2018-12-25T10:27:28.322Z,22.53
2018-12-25T10:29:56.598Z,37.53
2018-12-25T10:32:24.896Z,24.30
2018-12-25T10:34:53.178Z,19.97
2018-12-25T10:37:21.484Z,18.97
2018-12-25T10:39:49.737Z,18.40
2018-12-25T10:42:17.970Z,21.27
2018-12-25T10:44:46.242Z,19.00
2018-12-25T10:47:14.461Z,17.80
2018-12-25T10:49:42.738Z,18.63
2018-12-25T10:52:11.728Z,18.83
2018-12-25T10:54:40.298Z,17.40
2018-12-25T10:57:08.585Z,18.30
2018-12-25T10:59:36.787Z,18.67
2018-12-25T11:02:05.138Z,22.53
2018-12-25T11:04:33.414Z,16.90
2018-12-25T11:07:01.701Z,21.67
2018-12-25T11:09:29.898Z,20.90
2018-12-25T11:11:58.114Z,21.80
2018-12-25T11:14:26.389Z,16.90
2018-12-25T11:16:54.608Z,18.87
2018-12-25T11:19:22.793Z,20.00
2018-12-25T11:21:51.012Z,19.80
2018-12-25T11:24:19.291Z,19.50
2018-12-25T11:26:47.583Z,19.60
2018-12-25T11:29:15.846Z,16.43
2018-12-25T11:31:44.047Z,16.90
2018-12-25T11:34:12.330Z,16.77
2018-12-25T11:36:40.529Z,17.53
2018-12-25T11:39:08.746Z,18.50
2018-12-25T11:41:37.051Z,20.23
2018-12-25T11:44:05.305Z,18.20
2018-12-25T11:46:33.503Z,21.57
2018-12-25T11:49:01.795Z,19.07
2018-12-25T11:51:30.061Z,17.33
2018-12-25T11:53:58.296Z,20.53
2018-12-25T11:56:26.571Z,19.67
2018-12-25T11:58:54.871Z,17.00
2018-12-25T12:01:23.150Z,17.07
2018-12-25T12:03:51.561Z,15.37
2018-12-25T12:06:19.766Z,17.20
2018-12-25T12:08:48.864Z,18.40
2018-12-25T12:11:17.135Z,15.37
2018-12-25T12:13:45.449Z,12.97
2018-12-25T12:16:13.705Z,18.70
2018-12-25T12:18:41.998Z,19.97
2018-12-25T12:21:10.265Z,17.10
2018-12-25T12:23:38.486Z,15.93
2018-12-25T12:26:06.749Z,18.20
2018-12-25T12:28:34.968Z,16.40
2018-12-25T12:31:03.248Z,18.57
2018-12-25T12:33:31.539Z,15.50
2018-12-25T12:35:59.806Z,12.30
2018-12-25T12:38:28.030Z,12.43
2018-12-25T12:40:56.293Z,12.87
2018-12-25T12:43:24.505Z,16.67
2018-12-25T12:45:52.695Z,13.97
2018-12-25T12:48:20.999Z,16.87
2018-12-25T12:50:49.264Z,13.90
2018-12-25T12:53:17.546Z,12.60
2018-12-25T12:55:45.818Z,14.73
2018-12-25T12:58:14.088Z,13.30
2018-12-25T13:00:42.374Z,12.37
2018-12-25T13:03:10.569Z,13.30
2018-12-25T13:05:38.854Z,12.53
2018-12-25T13:08:07.127Z,13.57
2018-12-25T13:10:35.410Z,13.03
2018-12-25T13:13:03.678Z,12.83
2018-12-25T13:15:31.958Z,10.63
2018-12-25T13:18:00.146Z,10.90
2018-12-25T13:20:28.378Z,14.37
2018-12-25T13:22:56.562Z,9.43
2018-12-25T13:25:24.846Z,10.23
2018-12-25T13:27:53.110Z,11.77
2018-12-25T13:30:21.433Z,16.03
2018-12-25T13:32:49.697Z,12.57
2018-12-25T13:35:17.918Z,13.83
2018-12-25T13:37:46.178Z,11.90
2018-12-25T13:40:14.386Z,13.50
2018-12-25T13:42:42.653Z,13.67
2018-12-25T13:45:10.866Z,12.90
2018-12-25T13:47:39.053Z,13.63
2018-12-25T13:50:08.137Z,11.90
2018-12-25T13:52:36.402Z,11.20
2018-12-25T13:55:04.959Z,14.13
2018-12-25T13:57:33.221Z,10.17
2018-12-25T14:00:01.430Z,15.23
2018-12-25T14:02:29.744Z,11.73
2018-12-25T14:04:57.982Z,10.30
2018-12-25T14:07:26.170Z,11.53
2018-12-25T14:09:54.458Z,17.40
2018-12-25T14:12:23.518Z,19.07
2018-12-25T14:14:51.805Z,14.53
2018-12-25T14:17:19.994Z,11.67
2018-12-25T14:19:48.282Z,10.90
2018-12-25T14:22:16.474Z,12.17
2018-12-25T14:24:44.686Z,13.80
2018-12-25T14:27:12.949Z,14.67
2018-12-25T14:29:41.165Z,11.47
2018-12-25T14:32:09.430Z,12.83
2018-12-25T14:34:37.620Z,12.87
2018-12-25T14:37:05.911Z,11.77
2018-12-25T14:39:34.246Z,15.90
2018-12-25T14:42:02.530Z,13.97
2018-12-25T14:44:30.799Z,13.40
2018-12-25T14:46:59.083Z,11.57
2018-12-25T14:49:27.350Z,11.27
2018-12-25T14:51:55.559Z,12.33
2018-12-25T14:54:23.847Z,15.30
2018-12-25T14:56:52.142Z,13.53
2018-12-25T14:59:20.403Z,12.00
2018-12-25T15:01:48.681Z,14.90
2018-12-25T15:04:16.882Z,16.07
2018-12-25T15:06:45.162Z,15.50
2018-12-25T15:09:13.362Z,15.63
2018-12-25T15:11:41.737Z,15.97
2018-12-25T15:14:09.948Z,13.07
2018-12-25T15:16:38.234Z,15.63
2018-12-25T15:19:06.502Z,16.97
2018-12-25T15:21:34.785Z,16.10
2018-12-25T15:24:02.983Z,16.10
2018-12-25T15:26:31.275Z,15.53
2018-12-25T15:28:59.537Z,18.23
2018-12-25T15:31:27.768Z,16.00
2018-12-25T15:33:56.029Z,14.57
2018-12-25T15:36:24.241Z,17.93
2018-12-25T15:38:52.438Z,14.63
2018-12-25T15:41:20.665Z,17.40
2018-12-25T15:43:48.931Z,15.87
2018-12-25T15:46:17.141Z,15.87
2018-12-25T15:48:45.338Z,20.93
2018-12-25T15:51:13.635Z,17.30
2018-12-25T15:53:41.907Z,18.67
2018-12-25T15:56:10.122Z,13.20
2018-12-25T15:58:38.313Z,15.60
2018-12-25T16:01:06.528Z,21.00
2018-12-25T16:03:34.794Z,17.10
2018-12-25T16:06:03.014Z,18.90
2018-12-25T16:08:31.211Z,16.20
2018-12-25T16:10:59.484Z,15.27
2018-12-25T16:13:27.774Z,17.17
2018-12-25T16:15:56.048Z,15.87
2018-12-25T16:18:24.277Z,16.37
2018-12-25T16:20:52.541Z,16.93
2018-12-25T16:23:20.768Z,18.40
2018-12-25T16:25:49.034Z,16.93
2018-12-25T16:28:17.259Z,16.73
2018-12-25T16:30:45.542Z,17.50
2018-12-25T16:33:13.825Z,18.53
2018-12-25T16:35:42.026Z,19.77
2018-12-25T16:38:10.322Z,17.83
2018-12-25T16:40:38.526Z,16.17
2018-12-25T16:43:06.817Z,16.90
2018-12-25T16:45:35.023Z,18.80
2018-12-25T16:48:03.323Z,20.00
2018-12-25T16:50:31.586Z,18.07
2018-12-25T16:52:59.810Z,19.33
2018-12-25T16:55:28.092Z,18.77
2018-12-25T16:57:56.377Z,17.40
2018-12-25T17:00:24.587Z,14.63
2018-12-25T17:02:52.878Z,16.20
2018-12-25T17:05:21.075Z,20.50
2018-12-25T17:07:49.290Z,17.30
2018-12-25T17:10:17.498Z,20.87
2018-12-25T17:12:45.790Z,17.37
2018-12-25T17:15:13.978Z,20.07
2018-12-25T17:17:42.207Z,18.70
2018-12-25T17:20:10.478Z,20.73
2018-12-25T17:22:38.770Z,17.03
2018-12-25T17:25:06.966Z,21.17
2018-12-25T17:27:35.254Z,20.47
2018-12-25T17:30:03.445Z,19.83
2018-12-25T17:32:31.644Z,17.70
2018-12-25T17:34:59.870Z,19.03
2018-12-25T17:37:29.504Z,23.27
2018-12-25T17:39:57.838Z,19.17
2018-12-25T17:42:26.111Z,19.77
2018-12-25T17:44:54.408Z,17.07
2018-12-25T17:47:22.678Z,21.80
2018-12-25T17:49:51.266Z,19.37
2018-12-25T17:52:19.538Z,22.77
2018-12-25T17:54:47.834Z,22.50
2018-12-25T17:57:16.105Z,22.00
2018-12-25T17:59:44.398Z,21.33
2018-12-25T18:02:12.674Z,17.20
2018-12-25T18:04:40.972Z,22.87
2018-12-25T18:07:09.245Z,18.07
2018-12-25T18:09:37.469Z,17.17
2018-12-25T18:12:05.747Z,22.87
2018-12-25T18:14:34.033Z,21.70
2018-12-25T18:17:02.407Z,21.40
2018-12-25T18:19:30.702Z,20.77
2018-12-25T18:21:58.966Z,21.23
2018-12-25T18:24:27.185Z,25.13
2018-12-25T18:26:55.490Z,22.37
2018-12-25T18:29:23.785Z,21.60
2018-12-25T18:31:51.977Z,24.00
2018-12-25T18:34:20.197Z,21.80
2018-12-25T18:36:48.392Z,20.60
2018-12-25T18:39:16.618Z,21.80
2018-12-25T18:41:44.889Z,23.17
2018-12-25T18:44:13.186Z,23.20
2018-12-25T18:46:43.403Z,21.93
2018-12-25T18:49:11.394Z,22.87
2018-12-25T18:51:39.603Z,24.00
2018-12-25T18:54:07.914Z,22.33
2018-12-25T18:56:36.119Z,21.87
2018-12-25T18:59:04.391Z,19.47
2018-12-25T19:01:32.683Z,27.73
2018-12-25T19:04:00.877Z,25.73
2018-12-25T19:06:29.101Z,21.67
2018-12-25T19:08:57.366Z,24.40
2018-12-25T19:11:25.661Z,28.53
2018-12-25T19:13:53.934Z,27.67
2018-12-25T19:16:22.225Z,23.10
2018-12-25T19:18:50.426Z,25.73
2018-12-25T19:21:18.642Z,22.70
2018-12-25T19:23:48.578Z,23.13
2018-12-25T19:26:16.790Z,21.80
2018-12-25T19:28:45.012Z,25.07
2018-12-25T19:31:13.281Z,24.13
2018-12-25T19:33:41.478Z,47.17
2018-12-25T19:36:09.771Z,27.53
2018-12-25T19:38:38.046Z,26.27
2018-12-25T19:41:06.425Z,24.83
2018-12-25T19:43:34.710Z,23.73
2018-12-25T19:46:03.018Z,23.10
2018-12-25T19:48:31.289Z,22.77
2018-12-25T19:50:59.582Z,24.23
2018-12-25T19:53:27.845Z,23.37
2018-12-25T19:55:56.061Z,24.33
2018-12-25T19:58:24.430Z,25.93
2018-12-25T20:00:52.719Z,24.10
2018-12-25T20:03:20.987Z,25.83
2018-12-25T20:05:53.795Z,28.57
2018-12-25T20:08:40.232Z,29.07
2018-12-25T20:11:12.969Z,32.40
2018-12-25T20:13:58.937Z,34.07
2018-12-25T20:16:37.579Z,31.10
2018-12-25T20:19:07.384Z,27.43
2018-12-25T20:21:55.068Z,29.07
2018-12-25T20:24:27.862Z,26.07
2018-12-25T20:27:00.296Z,30.43
2018-12-25T20:29:33.169Z,25.90
2018-12-25T20:32:05.887Z,23.80
2018-12-25T20:34:50.790Z,25.00
2018-12-25T20:37:29.458Z,25.50
2018-12-25T20:40:17.394Z,29.20
2018-12-25T20:43:02.305Z,27.30
2018-12-25T20:45:40.894Z,29.00
2018-12-25T20:48:13.423Z,24.60
2018-12-25T20:51:01.306Z,25.43
2018-12-25T20:53:39.633Z,28.10
2018-12-25T20:56:27.382Z,25.27
2018-12-25T20:58:57.206Z,34.93
2018-12-25T21:01:32.648Z,26.13
2018-12-25T21:04:05.159Z,29.40
2018-12-25T21:06:51.254Z,26.23
2018-12-25T21:09:37.758Z,23.73
2018-12-25T21:12:19.632Z,24.67
2018-12-25T21:14:58.301Z,32.47
2018-12-25T21:17:36.733Z,23.90
2018-12-25T21:20:15.218Z,32.87
2018-12-25T21:23:01.218Z,20.53
2018-12-25T21:25:47.563Z,28.67
2018-12-25T21:28:15.297Z,32.63
2018-12-25T21:30:43.687Z,26.13
2018-12-25T21:33:12.026Z,25.60
2018-12-25T21:35:40.289Z,21.30
2018-12-25T21:38:08.682Z,22.53
2018-12-25T21:40:37.018Z,22.17
2018-12-25T21:43:05.810Z,23.63
2018-12-25T21:45:34.158Z,25.93
2018-12-25T21:48:02.520Z,25.33
2018-12-25T21:50:30.870Z,25.83
2018-12-25T21:52:59.157Z,25.97
2018-12-25T21:55:27.420Z,22.60
2018-12-25T21:57:55.893Z,23.73
2018-12-25T22:00:24.161Z,25.63
2018-12-25T22:02:52.890Z,24.97
2018-12-25T22:05:21.229Z,25.70
2018-12-25T22:07:49.508Z,30.17
2018-12-25T22:10:17.963Z,22.00
2018-12-25T22:12:46.258Z,23.27
2018-12-25T22:15:14.472Z,21.03
2018-12-25T22:17:43.089Z,22.10
2018-12-25T22:20:12.916Z,23.00
2018-12-25T22:22:41.494Z,23.90
2018-12-25T22:25:09.770Z,20.43
2018-12-25T22:27:38.061Z,21.47
2018-12-25T22:30:06.329Z,21.57
2018-12-25T22:32:34.558Z,22.90
2018-12-25T22:35:03.162Z,21.90
2018-12-25T22:37:31.458Z,23.30
2018-12-25T22:39:59.742Z,20.20
2018-12-25T22:42:28.030Z,28.40
2018-12-25T22:44:56.232Z,24.73
2018-12-25T22:47:24.514Z,22.37
2018-12-25T22:49:52.713Z,21.37
2018-12-25T22:52:20.922Z,20.10
2018-12-25T22:54:49.215Z,21.43
2018-12-25T22:57:17.479Z,22.23
2018-12-25T22:59:45.771Z,20.97
2018-12-25T23:02:14.046Z,20.83
2018-12-25T23:04:42.338Z,22.27
2018-12-25T23:07:10.534Z,19.90
2018-12-25T23:09:38.822Z,21.13
2018-12-25T23:12:07.022Z,21.80
2018-12-25T23:14:35.316Z,27.37
2018-12-25T23:17:03.513Z,23.87
2018-12-25T23:19:31.802Z,23.77
2018-12-25T23:22:00.078Z,23.03
2018-12-25T23:24:28.362Z,25.03
2018-12-25T23:26:56.562Z,23.83
2018-12-25T23:29:24.854Z,28.37
2018-12-25T23:31:53.124Z,26.10
2018-12-25T23:34:21.413Z,35.63
2018-12-25T23:36:49.614Z,27.33
2018-12-25T23:39:17.911Z,24.57
2018-12-25T23:41:46.190Z,27.20
2018-12-25T23:44:14.477Z,27.23
2018-12-25T23:46:42.670Z,25.43
2018-12-25T23:49:10.967Z,29.97
2018-12-25T23:51:39.246Z,29.07
2018-12-25T23:54:07.993Z,25.17
2018-12-25T23:56:36.271Z,31.67
2018-12-25T23:59:04.586Z,30.77
